createdAt,value
2019-03-18T00:01:44.756Z,177.20
2019-03-18T00:04:15.927Z,233.50
2019-03-18T00:06:48.746Z,300.30
2019-03-18T00:09:19.852Z,220.55
2019-03-18T00:11:50.890Z,188.07
2019-03-18T00:14:22.044Z,113.35
2019-03-18T00:16:53.212Z,158.60
2019-03-18T00:19:24.205Z,238.68
2019-03-18T00:21:55.295Z,244.47
2019-03-18T00:24:26.402Z,499.20
2019-03-18T00:26:57.598Z,322.77
2019-03-18T00:29:29.177Z,288.35
2019-03-18T00:32:00.290Z,245.48
2019-03-18T00:34:31.464Z,286.15
2019-03-18T00:37:02.755Z,306.63
2019-03-18T00:39:33.795Z,267.50
2019-03-18T00:42:04.828Z,219.28
2019-03-18T00:44:35.873Z,259.23
2019-03-18T00:47:07.012Z,246.18
2019-03-18T00:49:38.049Z,199.30
2019-03-18T00:52:09.095Z,209.45
2019-03-18T00:54:40.207Z,172.35
2019-03-18T00:57:11.322Z,215.03
2019-03-18T00:59:42.386Z,212.38
2019-03-18T01:02:13.504Z,237.78
2019-03-18T01:04:44.664Z,229.45
2019-03-18T01:07:15.799Z,211.15
2019-03-18T01:09:46.866Z,184.20
2019-03-18T01:12:17.983Z,199.35
2019-03-18T01:14:48.983Z,186.62
2019-03-18T01:17:20.030Z,208.78
2019-03-18T01:19:51.176Z,225.57
2019-03-18T01:22:22.254Z,280.12
2019-03-18T01:24:53.355Z,336.70
2019-03-18T01:27:25.576Z,343.50
2019-03-18T01:29:56.762Z,312.90
2019-03-18T01:32:27.921Z,237.63
2019-03-18T01:34:59.054Z,250.62
2019-03-18T01:37:30.319Z,223.93
2019-03-18T01:40:01.339Z,206.07
2019-03-18T01:42:32.531Z,136.92
2019-03-18T01:45:04.625Z,110.72
2019-03-18T01:47:35.713Z,122.82
2019-03-18T01:50:16.720Z,193.97
2019-03-18T01:52:47.752Z,138.30
2019-03-18T01:55:18.922Z,157.95
2019-03-18T01:57:50.008Z,153.38
2019-03-18T02:00:21.024Z,100.65
2019-03-18T02:02:52.150Z,125.72
2019-03-18T02:05:23.241Z,79.87
2019-03-18T02:07:54.367Z,95.30
2019-03-18T02:10:25.356Z,119.40
2019-03-18T02:12:56.459Z,134.35
2019-03-18T02:15:27.504Z,161.10
2019-03-18T02:17:58.493Z,137.60
2019-03-18T02:20:29.588Z,135.63
2019-03-18T02:23:00.630Z,116.47
2019-03-18T02:25:31.762Z,126.10
2019-03-18T02:28:03.301Z,124.12
2019-03-18T02:30:34.361Z,111.05
2019-03-18T02:33:05.436Z,104.45
2019-03-18T02:35:36.420Z,102.07
2019-03-18T02:38:07.633Z,110.68
2019-03-18T02:40:38.820Z,106.70
2019-03-18T02:43:09.934Z,102.27
2019-03-18T02:45:41.015Z,101.90
2019-03-18T02:48:12.051Z,109.40
2019-03-18T02:50:43.252Z,117.55
2019-03-18T02:53:14.340Z,101.20
2019-03-18T02:55:45.459Z,97.72
2019-03-18T02:58:16.671Z,95.17
2019-03-18T03:00:47.666Z,106.35
2019-03-18T03:03:18.870Z,104.50
2019-03-18T03:05:49.952Z,97.35
2019-03-18T03:08:21.049Z,102.02
2019-03-18T03:10:53.380Z,109.27
2019-03-18T03:13:24.564Z,94.15
2019-03-18T03:15:55.675Z,103.12
2019-03-18T03:18:26.760Z,101.27
2019-03-18T03:20:57.789Z,91.17
2019-03-18T03:23:30.380Z,102.05
2019-03-18T03:26:01.391Z,79.65
2019-03-18T03:28:32.518Z,104.40
2019-03-18T03:31:03.966Z,102.07
2019-03-18T03:33:35.068Z,96.50
2019-03-18T03:36:06.142Z,93.90
2019-03-18T03:38:37.210Z,97.70
2019-03-18T03:41:08.236Z,107.00
2019-03-18T03:43:39.276Z,98.95
2019-03-18T03:46:10.315Z,95.90
2019-03-18T03:48:41.292Z,92.30
2019-03-18T03:51:12.467Z,93.50
2019-03-18T03:53:43.556Z,97.50
2019-03-18T03:56:14.599Z,101.60
2019-03-18T03:58:46.118Z,100.10
2019-03-18T04:01:17.176Z,99.97
2019-03-18T04:03:48.190Z,85.57
2019-03-18T04:06:19.254Z,83.55
2019-03-18T04:08:50.238Z,85.75
2019-03-18T04:11:21.342Z,76.60
2019-03-18T04:13:52.416Z,85.03
2019-03-18T04:16:23.544Z,97.85
2019-03-18T04:18:54.625Z,113.60
2019-03-18T04:21:25.728Z,121.62
2019-03-18T04:23:56.770Z,125.58
2019-03-18T04:26:28.932Z,117.47
2019-03-18T04:29:00.156Z,102.22
2019-03-18T04:31:31.226Z,106.58
2019-03-18T04:34:02.323Z,112.10
2019-03-18T04:36:33.406Z,103.78
2019-03-18T04:39:06.230Z,101.95
2019-03-18T04:41:37.537Z,86.42
2019-03-18T04:44:08.712Z,81.50
2019-03-18T04:46:39.780Z,79.92
2019-03-18T04:49:10.970Z,79.65
2019-03-18T04:51:42.115Z,112.95
2019-03-18T04:54:13.157Z,163.28
2019-03-18T04:56:44.198Z,167.68
2019-03-18T04:59:15.381Z,128.42
2019-03-18T05:01:46.398Z,115.42
2019-03-18T05:04:17.524Z,94.87
2019-03-18T05:06:48.571Z,96.08
2019-03-18T05:09:19.604Z,97.88
2019-03-18T05:11:50.753Z,89.72
2019-03-18T05:14:21.796Z,89.47
2019-03-18T05:16:52.782Z,77.70
2019-03-18T05:19:23.873Z,62.58
2019-03-18T05:21:54.868Z,66.72
2019-03-18T05:24:25.971Z,69.75
2019-03-18T05:26:57.111Z,78.50
2019-03-18T05:29:28.339Z,69.07
2019-03-18T05:31:59.390Z,73.60
2019-03-18T05:34:30.593Z,80.67
2019-03-18T05:37:01.759Z,71.02
2019-03-18T05:39:32.784Z,84.67
2019-03-18T05:42:04.002Z,95.45
2019-03-18T05:44:35.727Z,107.90
2019-03-18T05:47:06.766Z,99.85
2019-03-18T05:49:37.878Z,89.35
2019-03-18T05:52:09.040Z,98.87
2019-03-18T05:54:40.069Z,105.85
2019-03-18T05:57:11.252Z,93.78
2019-03-18T05:59:42.497Z,106.32
2019-03-18T06:02:13.667Z,91.90
2019-03-18T06:04:44.790Z,81.85
2019-03-18T06:07:15.816Z,90.50
2019-03-18T06:09:46.961Z,82.97
2019-03-18T06:12:18.166Z,71.00
2019-03-18T06:14:49.355Z,66.15
2019-03-18T06:17:20.565Z,64.22
2019-03-18T06:19:52.033Z,70.50
2019-03-18T06:22:23.212Z,69.25
2019-03-18T06:24:54.408Z,64.12
2019-03-18T06:27:26.326Z,62.80
2019-03-18T06:29:57.562Z,64.97
2019-03-18T06:32:28.855Z,60.70
2019-03-18T06:35:00.350Z,69.20
2019-03-18T06:37:31.449Z,69.60
2019-03-18T06:40:02.649Z,65.40
2019-03-18T06:42:33.724Z,69.12
2019-03-18T06:45:07.448Z,65.95
2019-03-18T06:47:38.790Z,60.98
2019-03-18T06:50:11.316Z,56.70
2019-03-18T06:52:42.421Z,55.80
2019-03-18T06:55:14.667Z,51.30
2019-03-18T06:57:45.766Z,48.73
2019-03-18T07:00:17.412Z,46.10
2019-03-18T07:02:48.433Z,48.75
2019-03-18T07:05:20.355Z,44.50
2019-03-18T07:07:51.485Z,48.28
2019-03-18T07:10:22.615Z,49.08
2019-03-18T07:12:53.854Z,46.40
2019-03-18T07:15:25.754Z,47.83
2019-03-18T07:17:56.766Z,51.60
2019-03-18T07:20:27.961Z,57.93
2019-03-18T07:22:59.253Z,73.75
2019-03-18T07:25:30.327Z,66.92
2019-03-18T07:28:01.512Z,68.17
2019-03-18T07:30:32.586Z,67.42
2019-03-18T07:33:03.668Z,63.83
2019-03-18T07:35:34.726Z,66.35
2019-03-18T07:38:05.917Z,61.48
2019-03-18T07:40:37.153Z,58.92
2019-03-18T07:43:08.203Z,68.83
2019-03-18T07:45:39.389Z,74.58
2019-03-18T07:48:12.542Z,82.85
2019-03-18T07:50:43.404Z,89.00
2019-03-18T07:53:14.506Z,81.90
2019-03-18T07:55:45.738Z,80.03
2019-03-18T07:58:16.786Z,87.02
2019-03-18T08:00:48.225Z,78.05
2019-03-18T08:03:19.390Z,76.33
2019-03-18T08:05:50.612Z,74.12
2019-03-18T08:08:21.817Z,72.40
2019-03-18T08:10:53.001Z,75.62
2019-03-18T08:13:24.314Z,63.73
2019-03-18T08:15:55.537Z,61.83
2019-03-18T08:18:26.678Z,63.45
2019-03-18T08:20:57.756Z,64.58
2019-03-18T08:23:29.097Z,71.92
2019-03-18T08:26:00.216Z,52.17
2019-03-18T08:28:31.380Z,44.93
2019-03-18T08:31:03.728Z,35.73
2019-03-18T08:33:34.742Z,33.70
2019-03-18T08:36:05.892Z,31.30
2019-03-18T08:38:37.036Z,28.75
2019-03-18T08:41:08.256Z,29.10
2019-03-18T08:43:39.648Z,25.82
2019-03-18T08:46:10.800Z,33.92
2019-03-18T08:48:42.045Z,34.85
2019-03-18T08:51:13.213Z,30.52
2019-03-18T08:53:45.460Z,29.55
2019-03-18T08:56:16.985Z,28.65
2019-03-18T08:58:48.207Z,41.35
2019-03-18T09:01:19.250Z,37.20
2019-03-18T09:03:50.397Z,43.30
2019-03-18T09:06:21.538Z,37.00
2019-03-18T09:08:52.791Z,34.80
2019-03-18T09:11:23.829Z,48.13
2019-03-18T09:13:55.089Z,47.73
2019-03-18T09:16:26.374Z,42.27
2019-03-18T09:19:08.147Z,42.50
2019-03-18T09:21:30.781Z,38.98
2019-03-18T09:24:02.636Z,39.15
2019-03-18T09:26:34.027Z,34.65
2019-03-18T09:29:05.289Z,33.33
2019-03-18T09:31:36.506Z,34.08
2019-03-18T09:34:07.669Z,31.60
2019-03-18T09:36:38.852Z,30.37
2019-03-18T09:39:09.992Z,38.58
2019-03-18T09:41:41.213Z,26.12
2019-03-18T09:44:12.578Z,18.23
2019-03-18T09:46:43.675Z,19.65
2019-03-18T09:49:21.418Z,19.32
2019-03-18T09:51:47.669Z,11.73
2019-03-18T09:54:19.325Z,11.57
2019-03-18T09:56:50.826Z,18.65
2019-03-18T09:59:22.316Z,11.45
2019-03-18T10:01:53.384Z,15.83
2019-03-18T10:04:24.585Z,6.92
2019-03-18T10:06:55.782Z,5.90
2019-03-18T10:09:26.884Z,8.93
2019-03-18T10:11:58.514Z,8.35
2019-03-18T10:14:29.641Z,13.00
2019-03-18T10:17:09.576Z,15.70
2019-03-18T10:19:34.016Z,10.47
2019-03-18T10:22:05.185Z,6.65
2019-03-18T10:24:36.366Z,12.03
2019-03-18T10:27:07.435Z,15.45
2019-03-18T10:29:38.693Z,8.75
2019-03-18T10:32:09.710Z,14.55
2019-03-18T10:34:40.739Z,10.13
2019-03-18T10:37:12.032Z,10.72
2019-03-18T10:39:43.285Z,12.90
2019-03-18T10:42:14.517Z,25.68
2019-03-18T10:44:45.522Z,11.68
2019-03-18T10:47:16.548Z,22.93
2019-03-18T10:49:47.615Z,11.18
2019-03-18T10:52:18.727Z,9.78
2019-03-18T10:54:49.858Z,8.08
2019-03-18T10:57:20.944Z,9.10
2019-03-18T10:59:51.876Z,11.18
2019-03-18T11:02:22.917Z,9.48
2019-03-18T11:04:54.008Z,7.42
2019-03-18T11:07:24.984Z,10.72
2019-03-18T11:09:56.000Z,8.00
2019-03-18T11:12:26.957Z,7.30
2019-03-18T11:14:58.015Z,11.85
2019-03-18T11:17:29.206Z,12.82
2019-03-18T11:20:00.295Z,13.98
2019-03-18T11:22:31.513Z,8.58
2019-03-18T11:25:02.634Z,9.18
2019-03-18T11:27:33.625Z,16.50
2019-03-18T11:30:09.844Z,14.13
2019-03-18T11:32:41.795Z,13.83
2019-03-18T11:35:12.821Z,10.00
2019-03-18T11:37:43.924Z,18.00
2019-03-18T11:40:17.139Z,9.15
2019-03-18T11:42:48.218Z,11.38
2019-03-18T11:45:19.531Z,14.53
2019-03-18T11:47:50.827Z,10.23
2019-03-18T11:50:22.251Z,14.73
2019-03-18T11:52:53.656Z,12.55
2019-03-18T11:55:27.016Z,20.25
2019-03-18T11:57:58.085Z,7.28
2019-03-18T12:00:29.139Z,4.50
2019-03-18T12:03:00.335Z,5.45
2019-03-18T12:05:31.447Z,8.08
2019-03-18T12:08:02.462Z,8.05
2019-03-18T12:10:33.474Z,6.25
2019-03-18T12:13:04.347Z,7.83
2019-03-18T12:15:36.648Z,10.90
2019-03-18T12:18:07.921Z,12.82
2019-03-18T12:20:39.013Z,6.58
2019-03-18T12:23:09.924Z,3.72
2019-03-18T12:25:40.969Z,4.35
2019-03-18T12:28:11.925Z,7.10
2019-03-18T12:30:42.917Z,10.75
2019-03-18T12:33:14.016Z,7.87
2019-03-18T12:35:45.100Z,7.37
2019-03-18T12:38:16.138Z,7.12
2019-03-18T12:40:47.980Z,9.18
2019-03-18T12:43:19.077Z,8.43
2019-03-18T12:45:50.158Z,14.00
2019-03-18T12:48:21.388Z,14.58
2019-03-18T12:50:56.176Z,9.28
2019-03-18T12:53:25.126Z,10.97
2019-03-18T12:55:56.309Z,16.30
2019-03-18T12:58:28.455Z,13.30
2019-03-18T13:01:11.866Z,10.93
2019-03-18T13:03:32.265Z,21.12
2019-03-18T13:06:03.820Z,21.60
2019-03-18T13:08:34.933Z,15.60
2019-03-18T13:11:06.006Z,13.55
2019-03-18T13:13:37.108Z,23.83
2019-03-18T13:16:08.293Z,24.50
2019-03-18T13:18:39.502Z,27.30
2019-03-18T13:21:10.650Z,13.50
2019-03-18T13:23:41.666Z,20.00
2019-03-18T13:26:12.981Z,27.42
2019-03-18T13:28:45.363Z,20.45
2019-03-18T13:31:16.576Z,12.82
2019-03-18T13:33:47.737Z,29.48
2019-03-18T13:36:18.768Z,16.75
2019-03-18T13:38:49.790Z,16.77
2019-03-18T13:41:20.955Z,22.95
2019-03-18T13:43:51.969Z,9.30
2019-03-18T13:46:23.178Z,43.38
2019-03-18T13:48:54.276Z,21.25
2019-03-18T13:51:25.350Z,15.32
2019-03-18T13:53:56.477Z,14.73
2019-03-18T13:56:28.189Z,23.52
2019-03-18T13:58:59.295Z,19.23
2019-03-18T14:01:30.508Z,35.30
2019-03-18T14:04:01.597Z,18.05
2019-03-18T14:06:33.761Z,20.55
2019-03-18T14:09:06.882Z,52.62
2019-03-18T14:11:38.024Z,17.67
2019-03-18T14:14:09.167Z,9.23
2019-03-18T14:16:40.211Z,12.05
2019-03-18T14:19:11.752Z,14.15
2019-03-18T14:21:43.237Z,19.15
2019-03-18T14:24:14.579Z,21.55
2019-03-18T14:26:45.935Z,21.00
2019-03-18T14:29:17.172Z,25.70
2019-03-18T14:31:48.496Z,21.45
2019-03-18T14:34:19.614Z,60.10
2019-03-18T14:36:51.882Z,21.17
2019-03-18T14:39:22.991Z,30.00
2019-03-18T14:41:54.186Z,52.27
2019-03-18T14:44:25.289Z,29.42
2019-03-18T14:46:56.337Z,32.65
2019-03-18T14:49:27.463Z,19.52
2019-03-18T14:51:58.584Z,11.97
2019-03-18T14:54:29.612Z,27.95
2019-03-18T14:57:00.694Z,15.72
2019-03-18T14:59:32.330Z,22.10
2019-03-18T15:02:03.420Z,24.15
2019-03-18T15:04:34.531Z,15.23
2019-03-18T15:07:05.577Z,23.57
2019-03-18T15:09:36.718Z,19.00
2019-03-18T15:12:07.878Z,34.83
2019-03-18T15:14:39.010Z,21.10
2019-03-18T15:17:10.166Z,24.12
2019-03-18T15:19:41.161Z,12.40
2019-03-18T15:22:12.349Z,15.88
2019-03-18T15:24:43.554Z,10.70
2019-03-18T15:27:14.726Z,14.68
2019-03-18T15:29:45.689Z,12.28
2019-03-18T15:32:16.607Z,15.18
2019-03-18T15:34:47.616Z,18.70
2019-03-18T15:37:18.594Z,10.35
2019-03-18T15:39:49.645Z,18.35
2019-03-18T15:42:20.740Z,12.43
2019-03-18T15:44:51.727Z,21.30
2019-03-18T15:47:22.761Z,26.35
2019-03-18T15:49:53.911Z,27.93
2019-03-18T15:52:25.127Z,25.92
2019-03-18T15:54:56.192Z,16.97
2019-03-18T15:57:29.929Z,20.77
2019-03-18T15:59:59.716Z,17.40
2019-03-18T16:02:30.641Z,23.07
2019-03-18T16:05:01.600Z,13.60
2019-03-18T16:07:32.769Z,18.40
2019-03-18T16:10:05.017Z,31.77
2019-03-18T16:12:35.981Z,20.95
2019-03-18T16:15:09.626Z,22.87
2019-03-18T16:20:20.657Z,21.20
2019-03-18T16:22:51.616Z,25.57
2019-03-18T16:25:22.710Z,27.05
2019-03-18T16:27:53.664Z,21.80
2019-03-18T16:30:24.593Z,22.05
2019-03-18T16:32:55.652Z,33.90
2019-03-18T16:35:26.647Z,25.88
2019-03-18T16:37:58.135Z,32.60
2019-03-18T16:40:29.260Z,36.60
2019-03-18T16:43:00.355Z,28.73
2019-03-18T16:45:31.489Z,23.45
2019-03-18T16:48:02.718Z,23.38
2019-03-18T16:50:33.914Z,20.60
2019-03-18T16:53:05.136Z,19.98
2019-03-18T16:55:36.186Z,22.02
2019-03-18T16:58:07.223Z,21.95
2019-03-18T17:00:38.217Z,23.52
2019-03-18T17:03:09.492Z,23.10
2019-03-18T17:05:40.449Z,19.77
2019-03-18T17:08:11.454Z,13.95
2019-03-18T17:10:42.427Z,21.27
2019-03-18T17:13:13.582Z,19.62
2019-03-18T17:15:44.577Z,26.07
2019-03-18T17:18:17.986Z,26.70
2019-03-18T17:20:48.712Z,26.15
2019-03-18T17:23:20.981Z,34.25
2019-03-18T17:25:52.323Z,23.15
2019-03-18T17:28:23.369Z,28.27
2019-03-18T17:30:54.523Z,29.12
2019-03-18T17:33:25.683Z,25.15
2019-03-18T17:35:56.734Z,26.30
2019-03-18T17:38:28.010Z,30.43
2019-03-18T17:40:59.000Z,39.05
2019-03-18T17:43:30.336Z,36.13
2019-03-18T17:46:01.471Z,36.25
2019-03-18T17:48:32.652Z,41.30
2019-03-18T17:51:03.887Z,35.78
2019-03-18T17:53:35.003Z,37.15
2019-03-18T17:56:06.288Z,34.25
2019-03-18T17:58:37.507Z,48.92
2019-03-18T18:01:08.642Z,39.83
2019-03-18T18:03:39.699Z,38.13
2019-03-18T18:06:10.788Z,34.25
2019-03-18T18:08:42.091Z,44.85
2019-03-18T18:11:13.294Z,34.60
2019-03-18T18:13:44.460Z,37.93
2019-03-18T18:16:15.581Z,36.53
2019-03-18T18:18:46.797Z,32.85
2019-03-18T18:21:17.941Z,32.67
2019-03-18T18:23:49.243Z,42.75
2019-03-18T18:26:20.294Z,31.15
2019-03-18T18:28:51.336Z,35.78
2019-03-18T18:31:22.319Z,29.77
2019-03-18T18:33:53.788Z,28.30
2019-03-18T18:36:25.424Z,26.27
2019-03-18T18:38:56.633Z,34.78
2019-03-18T18:41:27.851Z,28.67
2019-03-18T18:43:59.162Z,29.98
2019-03-18T18:46:30.208Z,32.73
2019-03-18T18:49:02.145Z,47.78
2019-03-18T18:51:33.269Z,31.35
2019-03-18T18:54:04.675Z,33.25
2019-03-18T18:56:35.771Z,28.35
2019-03-18T18:59:06.956Z,32.35
2019-03-18T19:01:38.053Z,30.75
2019-03-18T19:04:09.194Z,34.13
2019-03-18T19:06:40.218Z,28.38
2019-03-18T19:09:11.267Z,31.95
2019-03-18T19:11:42.356Z,29.90
2019-03-18T19:14:13.428Z,27.80
2019-03-18T19:16:44.493Z,29.98
2019-03-18T19:19:15.633Z,33.92
2019-03-18T19:21:47.083Z,32.33
2019-03-18T19:24:18.392Z,29.80
2019-03-18T19:26:49.468Z,29.48
2019-03-18T19:29:20.637Z,32.42
2019-03-18T19:31:51.819Z,32.85
2019-03-18T19:34:22.933Z,33.48
2019-03-18T19:36:54.170Z,31.97
2019-03-18T19:39:25.184Z,28.57
2019-03-18T19:41:56.183Z,37.70
2019-03-18T19:44:27.228Z,37.65
2019-03-18T19:46:58.216Z,44.10
2019-03-18T19:49:29.272Z,54.18
2019-03-18T19:52:00.312Z,55.12
2019-03-18T19:54:31.454Z,50.75
2019-03-18T19:57:03.621Z,45.15
2019-03-18T19:59:34.669Z,52.58
2019-03-18T20:02:05.706Z,46.08
2019-03-18T20:04:36.676Z,48.85
2019-03-18T20:07:07.742Z,38.28
2019-03-18T20:09:38.882Z,38.02
2019-03-18T20:12:09.992Z,44.55
2019-03-18T20:14:41.175Z,41.88
2019-03-18T20:17:12.291Z,42.27
2019-03-18T20:19:43.459Z,40.48
2019-03-18T20:22:14.557Z,45.45
2019-03-18T20:24:45.692Z,41.73
2019-03-18T20:27:16.707Z,40.60
2019-03-18T20:29:47.808Z,37.45
2019-03-18T20:32:18.815Z,44.93
2019-03-18T20:34:49.871Z,41.70
2019-03-18T20:37:20.890Z,37.42
2019-03-18T20:39:51.957Z,40.25
2019-03-18T20:42:23.097Z,35.25
2019-03-18T20:44:54.157Z,39.10
2019-03-18T20:47:25.283Z,35.63
2019-03-18T20:49:57.494Z,39.45
2019-03-18T20:52:29.005Z,34.90
2019-03-18T20:55:00.160Z,40.52
2019-03-18T20:57:31.569Z,35.80
2019-03-18T21:00:03.275Z,39.63
2019-03-18T21:02:35.831Z,41.23
2019-03-18T21:05:09.070Z,40.88
2019-03-18T21:07:40.257Z,43.78
2019-03-18T21:10:16.408Z,38.83
2019-03-18T21:12:47.513Z,37.70
2019-03-18T21:15:18.861Z,37.15
2019-03-18T21:17:49.973Z,49.30
2019-03-18T21:20:23.420Z,43.63
2019-03-18T21:25:24.829Z,39.85
2019-03-18T21:27:56.290Z,44.55
2019-03-18T21:30:27.362Z,39.03
2019-03-18T21:32:58.492Z,40.45
2019-03-18T21:35:29.529Z,35.48
2019-03-18T21:38:00.820Z,30.10
2019-03-18T21:40:31.899Z,30.75
2019-03-18T21:43:02.981Z,39.67
2019-03-18T21:45:34.084Z,38.35
2019-03-18T21:48:05.133Z,30.45
2019-03-18T21:50:36.175Z,31.12
2019-03-18T21:53:07.523Z,31.82
2019-03-18T21:55:38.603Z,35.95
2019-03-18T21:58:10.092Z,32.30
2019-03-18T22:00:41.191Z,33.25
2019-03-18T22:03:12.445Z,33.90
2019-03-18T22:05:43.550Z,32.33
2019-03-18T22:08:14.836Z,34.45
2019-03-18T22:10:45.909Z,34.23
2019-03-18T22:13:17.004Z,30.95
2019-03-18T22:15:49.276Z,33.15
2019-03-18T22:18:22.973Z,33.73
2019-03-18T22:20:56.597Z,30.47
2019-03-18T22:23:29.839Z,24.95
2019-03-18T22:26:03.253Z,19.90
2019-03-18T22:28:35.236Z,20.12
2019-03-18T22:31:06.742Z,19.92
2019-03-18T22:33:37.803Z,24.90
2019-03-18T22:36:08.943Z,21.42
2019-03-18T22:38:39.932Z,19.98
2019-03-18T22:41:11.029Z,22.85
2019-03-18T22:43:42.006Z,19.42
2019-03-18T22:46:13.011Z,18.07
2019-03-18T22:48:44.180Z,19.15
2019-03-18T22:51:15.236Z,16.48
2019-03-18T22:53:46.346Z,17.42
2019-03-18T22:56:17.548Z,18.70
2019-03-18T22:58:48.631Z,20.30
2019-03-18T23:01:19.760Z,16.75
2019-03-18T23:03:50.861Z,16.05
2019-03-18T23:06:21.956Z,17.30
2019-03-18T23:08:54.162Z,18.85
2019-03-18T23:11:25.149Z,15.90
2019-03-18T23:13:56.303Z,19.95
2019-03-18T23:16:27.288Z,18.52
2019-03-18T23:18:59.531Z,19.92
2019-03-18T23:21:30.525Z,20.52
2019-03-18T23:24:01.567Z,19.37
2019-03-18T23:26:32.790Z,20.48
2019-03-18T23:29:03.857Z,18.07
2019-03-18T23:31:34.989Z,24.52
2019-03-18T23:34:06.181Z,18.02
2019-03-18T23:36:37.315Z,21.40
2019-03-18T23:39:08.733Z,18.17
2019-03-18T23:41:39.909Z,19.07
2019-03-18T23:44:11.172Z,17.35
2019-03-18T23:46:42.222Z,18.32
2019-03-18T23:49:13.390Z,21.30
2019-03-18T23:51:44.565Z,17.45
2019-03-18T23:54:15.751Z,20.15
2019-03-18T23:56:46.765Z,19.90
2019-03-18T23:59:17.853Z,18.92
